createdAt,value
2022-12-22T19:47:17.947Z,6.85
2022-12-22T19:49:46.477Z,5.50
2022-12-22T19:52:15.596Z,8.18
2022-12-22T19:54:45.784Z,8.25
2022-12-22T19:57:19.371Z,10.25
2022-12-22T19:59:53.832Z,5.78
2022-12-22T20:02:28.078Z,4.47
2022-12-22T20:04:58.170Z,3.90
2022-12-22T20:07:34.645Z,4.82
2022-12-22T20:10:02.863Z,2.15
2022-12-22T20:12:43.384Z,3.08
2022-12-22T20:15:25.460Z,1.50
2022-12-22T20:18:00.191Z,2.53
2022-12-22T20:20:42.271Z,2.92
2022-12-22T20:23:16.989Z,2.58
2022-12-22T20:25:48.303Z,3.25
2022-12-22T20:28:22.501Z,1.75
2022-12-22T20:30:51.179Z,2.67
2022-12-22T20:33:25.853Z,1.55
2022-12-22T20:35:59.081Z,1.73
2022-12-22T20:38:33.427Z,1.88
2022-12-22T20:41:03.175Z,2.13
2022-12-22T20:43:37.213Z,2.60
2022-12-22T20:46:13.559Z,1.88
2022-12-22T20:48:48.478Z,2.80
2022-12-22T20:51:22.465Z,2.85
2022-12-22T20:53:57.307Z,1.88
2022-12-22T20:56:30.473Z,1.92
2022-12-22T20:59:02.910Z,2.92
2022-12-22T21:01:31.300Z,2.05
2022-12-22T21:04:01.438Z,2.13
2022-12-22T21:06:32.047Z,1.98
2022-12-22T21:09:01.983Z,2.70
2022-12-22T21:14:00.285Z,1.77
2022-12-22T21:16:32.146Z,1.80
2022-12-22T21:19:02.496Z,2.92
2022-12-22T21:21:33.487Z,2.25
2022-12-22T21:24:02.130Z,1.80
2022-12-22T21:29:02.073Z,2.37
2022-12-22T21:31:30.562Z,2.05
2022-12-22T21:33:59.300Z,1.88
2022-12-22T21:36:33.154Z,1.88
2022-12-22T21:39:05.175Z,1.77
2022-12-22T21:41:51.622Z,1.92
2022-12-22T21:44:20.817Z,2.58
2022-12-22T21:46:49.395Z,1.87
2022-12-22T21:49:19.823Z,2.45
2022-12-22T21:51:50.500Z,1.80
2022-12-22T21:54:22.286Z,1.75
2022-12-22T21:56:51.772Z,1.85
2022-12-22T21:59:22.073Z,1.50
2022-12-22T22:01:52.854Z,2.28
2022-12-22T22:04:22.628Z,2.53
2022-12-22T22:06:52.605Z,3.10
2022-12-22T22:09:22.355Z,0.90
2022-12-22T22:12:08.821Z,1.38
2022-12-22T22:14:37.579Z,1.65
2022-12-22T22:17:07.194Z,1.63
2022-12-22T22:22:05.610Z,1.38
2022-12-22T22:27:04.232Z,2.05
2022-12-22T22:29:34.094Z,1.40
2022-12-22T22:32:04.061Z,1.35
2022-12-22T22:34:36.952Z,1.98
2022-12-22T22:37:06.800Z,2.03
2022-12-22T22:42:03.223Z,4.80
2022-12-22T22:44:31.540Z,2.53
2022-12-22T22:47:00.990Z,5.40
2022-12-22T22:49:29.301Z,6.22
2022-12-22T22:51:57.803Z,5.50
2022-12-22T22:54:27.475Z,15.55
2022-12-22T22:56:56.117Z,9.32
2022-12-22T22:59:25.347Z,6.95
2022-12-22T23:01:53.820Z,6.18
2022-12-22T23:04:22.471Z,6.22
2022-12-22T23:06:51.071Z,4.53
2022-12-22T23:09:19.525Z,20.00
2022-12-22T23:11:52.169Z,15.60
2022-12-22T23:14:22.618Z,8.75
2022-12-22T23:16:52.479Z,4.82
2022-12-22T23:19:23.013Z,3.08
2022-12-22T23:21:52.121Z,3.45
2022-12-22T23:24:20.611Z,2.27
2022-12-22T23:26:50.608Z,1.20
2022-12-22T23:29:19.289Z,1.65
2022-12-22T23:31:48.620Z,2.13
2022-12-22T23:34:18.520Z,1.60
2022-12-22T23:36:47.989Z,1.33
2022-12-22T23:39:17.303Z,0.93
2022-12-22T23:41:45.472Z,1.77
2022-12-22T23:44:15.400Z,1.27
2022-12-22T23:46:43.747Z,1.27
2022-12-22T23:49:15.964Z,1.38
2022-12-22T23:51:44.746Z,1.15
2022-12-22T23:54:13.052Z,1.58
2022-12-22T23:56:42.046Z,1.65
